createdAt,value
2023-05-14T00:00:53.388Z,86.12
2023-05-14T00:02:25.218Z,85.26
2023-05-14T00:03:58.562Z,86.72
2023-05-14T00:05:30.473Z,85.85
2023-05-14T00:07:02.113Z,85.65
2023-05-14T00:08:33.826Z,85.92
2023-05-14T00:10:06.747Z,85.89
2023-05-14T00:11:38.493Z,86.03
2023-05-14T00:13:10.202Z,86.67
2023-05-14T00:14:41.906Z,86.51
2023-05-14T00:16:13.724Z,86.33
2023-05-14T00:17:45.695Z,86.27
2023-05-14T00:19:19.150Z,86.42
2023-05-14T00:20:54.605Z,85.83
2023-05-14T00:22:26.285Z,87.35
2023-05-14T00:23:57.952Z,86.80
2023-05-14T00:25:30.017Z,85.85
2023-05-14T00:27:01.609Z,85.77
2023-05-14T00:28:33.191Z,86.63
2023-05-14T00:30:07.002Z,85.96
2023-05-14T00:31:38.704Z,86.55
2023-05-14T00:33:10.319Z,86.16
2023-05-14T00:34:43.336Z,85.93
2023-05-14T00:36:14.929Z,86.14
2023-05-14T00:37:46.595Z,86.28
2023-05-14T00:39:18.221Z,86.19
2023-05-14T00:40:52.819Z,86.00
2023-05-14T00:42:24.429Z,87.40
2023-05-14T00:43:56.076Z,86.97
2023-05-14T00:45:27.828Z,86.58
2023-05-14T00:46:59.788Z,86.11
2023-05-14T00:48:31.496Z,86.16
2023-05-14T00:50:05.730Z,85.77
2023-05-14T00:51:38.076Z,86.29
2023-05-14T00:53:10.713Z,86.06
2023-05-14T00:54:42.799Z,86.09
2023-05-14T00:56:14.588Z,86.43
2023-05-14T00:57:46.294Z,86.44
2023-05-14T00:59:17.954Z,85.52
2023-05-14T01:00:49.842Z,86.35
2023-05-14T01:02:21.822Z,86.15
2023-05-14T01:03:54.912Z,86.30
2023-05-14T01:05:28.217Z,86.22
2023-05-14T01:07:05.396Z,85.97
2023-05-14T01:08:42.125Z,85.79
2023-05-14T01:10:15.989Z,85.91
2023-05-14T01:11:50.173Z,86.63
2023-05-14T01:13:27.368Z,86.52
2023-05-14T01:15:02.105Z,86.10
2023-05-14T01:16:34.093Z,86.63
2023-05-14T01:18:07.933Z,86.69
2023-05-14T01:19:40.528Z,86.39
2023-05-14T01:21:35.291Z,87.18
2023-05-14T01:23:06.908Z,86.34
2023-05-14T01:24:38.625Z,86.52
2023-05-14T01:26:10.443Z,86.38
2023-05-14T01:27:43.946Z,86.45
2023-05-14T01:29:17.880Z,86.95
2023-05-14T01:30:54.275Z,86.51
2023-05-14T01:32:26.014Z,87.16
2023-05-14T01:33:57.650Z,87.37
2023-05-14T01:35:29.897Z,86.60
2023-05-14T01:37:03.004Z,89.12
2023-05-14T01:38:34.776Z,89.54
2023-05-14T01:40:07.793Z,89.08
2023-05-14T01:41:39.530Z,88.65
2023-05-14T01:43:11.787Z,87.95
2023-05-14T01:44:43.472Z,88.69
2023-05-14T01:46:18.149Z,87.77
2023-05-14T01:47:50.017Z,88.06
2023-05-14T01:49:21.871Z,89.35
2023-05-14T01:50:53.530Z,90.23
2023-05-14T01:52:26.622Z,89.27
2023-05-14T01:53:58.330Z,88.70
2023-05-14T01:55:30.001Z,88.97
2023-05-14T01:57:01.665Z,90.80
2023-05-14T01:58:33.323Z,90.08
2023-05-14T02:00:06.240Z,89.73
2023-05-14T02:01:37.929Z,88.68
2023-05-14T02:03:09.696Z,88.89
2023-05-14T02:04:41.416Z,90.03
2023-05-14T02:06:13.116Z,89.66
2023-05-14T02:07:46.139Z,89.87
2023-05-14T02:09:18.225Z,89.00
2023-05-14T02:10:49.984Z,87.49
2023-05-14T02:12:22.453Z,88.60
2023-05-14T02:13:54.130Z,88.27
2023-05-14T02:15:25.812Z,88.83
2023-05-14T02:16:57.604Z,88.48
2023-05-14T02:18:29.312Z,88.27
2023-05-14T02:20:00.955Z,88.27
2023-05-14T02:21:32.701Z,88.51
2023-05-14T02:23:05.744Z,87.78
2023-05-14T02:24:37.381Z,89.62
2023-05-14T02:26:09.788Z,90.99
2023-05-14T02:27:41.516Z,90.45
2023-05-14T02:29:13.163Z,90.33
2023-05-14T02:30:44.950Z,91.31
2023-05-14T02:32:16.714Z,90.08
2023-05-14T02:33:48.471Z,90.35
2023-05-14T02:35:20.105Z,89.18
2023-05-14T02:36:51.762Z,90.46
2023-05-14T02:38:25.769Z,91.07
2023-05-14T02:39:57.523Z,90.10
2023-05-14T02:41:29.135Z,89.52
2023-05-14T02:43:00.808Z,90.46
2023-05-14T02:44:32.492Z,91.08
2023-05-14T02:46:04.393Z,89.79
2023-05-14T02:47:37.988Z,89.09
2023-05-14T02:49:10.137Z,89.51
2023-05-14T02:50:41.778Z,92.48
2023-05-14T02:52:13.413Z,90.81
2023-05-14T02:53:46.473Z,90.78
2023-05-14T02:55:18.184Z,90.12
2023-05-14T02:56:49.836Z,89.89
2023-05-14T02:58:25.065Z,90.02
2023-05-14T02:59:59.974Z,90.61
2023-05-14T03:01:32.108Z,90.81
2023-05-14T03:03:04.329Z,91.36
2023-05-14T03:04:36.581Z,93.93
2023-05-14T03:06:08.323Z,92.16
2023-05-14T03:07:39.998Z,90.62
2023-05-14T03:09:13.045Z,91.63
2023-05-14T03:10:44.717Z,91.38
2023-05-14T03:12:16.436Z,91.99
2023-05-14T03:13:48.146Z,92.65
2023-05-14T03:15:19.942Z,91.13
2023-05-14T03:16:51.707Z,91.11
2023-05-14T03:18:23.430Z,91.74
2023-05-14T03:19:55.115Z,91.49
2023-05-14T03:21:27.321Z,91.75
2023-05-14T03:22:59.051Z,92.16
2023-05-14T03:24:32.298Z,91.56
2023-05-14T03:26:05.001Z,92.21
2023-05-14T03:27:36.697Z,92.13
2023-05-14T03:29:09.778Z,90.74
2023-05-14T03:30:41.636Z,90.95
2023-05-14T03:32:13.296Z,92.33
2023-05-14T03:33:44.950Z,91.94
2023-05-14T03:35:16.752Z,90.98
2023-05-14T03:36:48.499Z,91.42
2023-05-14T03:38:20.154Z,90.61
2023-05-14T03:39:53.470Z,90.84
2023-05-14T03:41:25.148Z,91.52
2023-05-14T03:42:56.754Z,90.76
2023-05-14T03:44:28.602Z,92.04
2023-05-14T03:46:00.333Z,91.46
2023-05-14T03:47:32.058Z,91.40
2023-05-14T03:49:03.879Z,92.14
2023-05-14T03:50:35.817Z,91.60
2023-05-14T03:52:07.485Z,91.28
2023-05-14T03:53:39.114Z,91.64
2023-05-14T03:55:12.229Z,92.35
2023-05-14T03:56:43.913Z,91.53
2023-05-14T03:58:15.702Z,92.18
2023-05-14T03:59:47.368Z,92.68
2023-05-14T04:01:19.077Z,92.05
2023-05-14T04:02:50.913Z,91.17
2023-05-14T04:04:22.663Z,91.62
2023-05-14T04:05:54.328Z,92.93
2023-05-14T04:07:26.030Z,92.99
2023-05-14T04:08:57.644Z,92.67
2023-05-14T04:10:32.112Z,92.50
2023-05-14T04:12:04.294Z,92.45
2023-05-14T04:13:36.001Z,93.26
2023-05-14T04:15:09.028Z,92.34
2023-05-14T04:16:40.823Z,93.08
2023-05-14T04:18:12.513Z,93.08
2023-05-14T04:19:44.154Z,91.46
2023-05-14T04:21:15.789Z,90.62
2023-05-14T04:22:47.393Z,92.19
2023-05-14T04:24:18.978Z,90.67
2023-05-14T04:25:51.929Z,91.04
2023-05-14T04:27:23.715Z,90.76
2023-05-14T04:28:55.733Z,90.57
2023-05-14T04:30:27.392Z,91.42
2023-05-14T04:31:59.089Z,90.80
2023-05-14T04:33:31.102Z,89.82
2023-05-14T04:35:02.938Z,89.98
2023-05-14T04:36:34.641Z,90.88
2023-05-14T04:38:06.275Z,90.45
2023-05-14T04:39:37.978Z,90.66
2023-05-14T04:41:11.054Z,91.26
2023-05-14T04:42:42.691Z,90.93
2023-05-14T04:44:14.322Z,90.26
2023-05-14T04:45:46.047Z,90.47
2023-05-14T04:47:17.839Z,89.81
2023-05-14T04:48:50.323Z,89.91
2023-05-14T04:50:22.315Z,90.71
2023-05-14T04:51:54.193Z,90.62
2023-05-14T04:53:25.953Z,90.42
2023-05-14T04:54:57.541Z,90.27
2023-05-14T04:56:30.562Z,90.06
2023-05-14T04:58:02.254Z,92.61
2023-05-14T04:59:33.872Z,94.04
2023-05-14T05:01:06.122Z,93.40
2023-05-14T05:02:37.865Z,94.20
2023-05-14T05:04:09.645Z,92.65
2023-05-14T05:05:41.349Z,93.76
2023-05-14T05:07:13.374Z,92.69
2023-05-14T05:08:44.993Z,93.66
2023-05-14T05:10:16.682Z,94.06
2023-05-14T05:11:49.714Z,93.11
2023-05-14T05:13:21.336Z,93.67
2023-05-14T05:14:52.950Z,92.90
2023-05-14T05:16:24.677Z,92.64
2023-05-14T05:17:56.521Z,93.69
2023-05-14T05:19:39.658Z,93.26
2023-05-14T05:21:15.116Z,93.68
2023-05-14T05:22:46.963Z,93.36
2023-05-14T05:24:18.652Z,94.27
2023-05-14T05:25:50.877Z,94.83
2023-05-14T05:27:23.889Z,94.67
2023-05-14T05:28:55.626Z,93.60
2023-05-14T05:30:27.264Z,93.38
2023-05-14T05:31:59.107Z,94.54
2023-05-14T05:33:30.722Z,94.72
2023-05-14T05:35:02.548Z,94.85
2023-05-14T05:36:34.262Z,95.60
2023-05-14T05:38:05.886Z,95.00
2023-05-14T05:39:37.472Z,93.60
2023-05-14T05:41:09.059Z,94.68
2023-05-14T05:42:41.999Z,95.55
2023-05-14T05:44:13.614Z,96.08
2023-05-14T05:45:46.028Z,96.34
2023-05-14T05:47:17.754Z,95.67
2023-05-14T05:48:49.505Z,95.90
2023-05-14T05:50:21.453Z,95.51
2023-05-14T05:51:53.285Z,95.64
2023-05-14T05:53:24.963Z,96.06
2023-05-14T05:54:56.616Z,97.51
2023-05-14T05:56:28.375Z,95.81
2023-05-14T05:58:01.862Z,95.22
2023-05-14T05:59:33.572Z,96.07
2023-05-14T06:01:05.255Z,95.59
2023-05-14T06:02:37.172Z,95.95
2023-05-14T06:04:08.943Z,95.51
2023-05-14T06:05:40.866Z,96.46
2023-05-14T06:07:12.949Z,96.60
2023-05-14T06:08:44.630Z,95.33
2023-05-14T06:10:16.333Z,95.72
2023-05-14T06:11:48.081Z,95.32
2023-05-14T06:13:22.239Z,95.83
2023-05-14T06:14:55.183Z,95.21
2023-05-14T06:16:26.854Z,95.99
2023-05-14T06:17:58.875Z,95.59
2023-05-14T06:19:30.598Z,97.44
2023-05-14T06:21:02.309Z,96.04
2023-05-14T06:22:34.048Z,97.04
2023-05-14T06:24:06.333Z,96.19
2023-05-14T06:25:38.049Z,95.18
2023-05-14T06:27:10.706Z,97.06
2023-05-14T06:28:43.827Z,96.69
2023-05-14T06:30:16.046Z,94.28
2023-05-14T06:31:47.826Z,94.89
2023-05-14T06:33:21.142Z,95.69
2023-05-14T06:34:52.822Z,95.82
2023-05-14T06:36:24.562Z,95.43
2023-05-14T06:37:56.206Z,96.54
2023-05-14T06:39:28.026Z,95.24
2023-05-14T06:40:59.811Z,95.82
2023-05-14T06:42:31.511Z,96.43
2023-05-14T06:44:04.878Z,95.89
2023-05-14T06:45:36.590Z,96.36
2023-05-14T06:47:11.461Z,96.34
2023-05-14T06:48:43.192Z,95.79
2023-05-14T06:50:14.966Z,95.04
2023-05-14T06:51:53.310Z,96.74
2023-05-14T06:53:25.400Z,95.03
2023-05-14T06:54:57.106Z,94.97
2023-05-14T06:56:28.758Z,94.03
2023-05-14T06:58:00.556Z,96.13
2023-05-14T06:59:33.600Z,96.37
2023-05-14T07:01:06.597Z,94.84
2023-05-14T07:02:38.298Z,96.16
2023-05-14T07:04:10.009Z,96.59
2023-05-14T07:05:42.180Z,95.49
2023-05-14T07:07:15.540Z,95.43
2023-05-14T07:08:47.313Z,96.16
2023-05-14T07:10:18.962Z,94.80
2023-05-14T07:11:50.631Z,94.90
2023-05-14T07:13:22.341Z,96.15
2023-05-14T07:14:57.025Z,95.31
2023-05-14T07:16:28.709Z,96.33
2023-05-14T07:18:00.489Z,96.60
2023-05-14T07:19:33.924Z,95.55
2023-05-14T07:21:06.617Z,94.97
2023-05-14T07:22:38.379Z,95.55
2023-05-14T07:24:10.096Z,94.17
2023-05-14T07:25:41.822Z,95.78
2023-05-14T07:27:13.467Z,95.52
2023-05-14T07:28:45.133Z,95.90
2023-05-14T07:30:18.210Z,95.07
2023-05-14T07:31:50.193Z,95.66
2023-05-14T07:33:22.508Z,95.87
2023-05-14T07:34:54.576Z,95.19
2023-05-14T07:36:26.243Z,96.32
2023-05-14T07:37:58.215Z,96.38
2023-05-14T07:39:29.818Z,95.95
2023-05-14T07:41:01.510Z,96.47
2023-05-14T07:42:36.603Z,95.75
2023-05-14T07:44:08.872Z,96.57
2023-05-14T07:45:41.987Z,96.62
2023-05-14T07:47:16.628Z,95.30
2023-05-14T07:48:48.350Z,95.63
2023-05-14T07:50:20.326Z,95.46
2023-05-14T07:51:51.984Z,95.63
2023-05-14T07:53:24.969Z,95.55
2023-05-14T07:54:56.779Z,95.63
2023-05-14T07:56:28.558Z,95.42
2023-05-14T07:58:00.398Z,96.29
2023-05-14T07:59:32.414Z,95.68
2023-05-14T08:01:07.306Z,95.91
2023-05-14T08:02:39.085Z,95.93
2023-05-14T08:04:15.226Z,95.07
2023-05-14T08:05:46.963Z,94.60
2023-05-14T08:07:18.637Z,93.18
2023-05-14T08:08:50.288Z,93.81
2023-05-14T08:10:22.380Z,94.93
2023-05-14T08:11:54.652Z,96.30
2023-05-14T08:13:26.271Z,95.66
2023-05-14T08:14:57.915Z,95.40
2023-05-14T08:16:31.159Z,96.04
2023-05-14T08:18:03.676Z,95.10
2023-05-14T08:19:35.551Z,95.75
2023-05-14T08:21:07.212Z,94.21
2023-05-14T08:22:38.946Z,93.39
2023-05-14T08:24:11.395Z,94.07
2023-05-14T08:25:43.119Z,93.62
2023-05-14T08:27:14.714Z,94.42
2023-05-14T08:28:46.328Z,95.23
2023-05-14T08:30:18.174Z,95.07
2023-05-14T08:31:51.389Z,94.24
2023-05-14T08:33:23.406Z,95.34
2023-05-14T08:34:55.077Z,96.10
2023-05-14T08:36:26.963Z,95.58
2023-05-14T08:37:58.600Z,95.54
2023-05-14T08:39:30.312Z,94.17
2023-05-14T08:41:01.947Z,95.07
2023-05-14T08:42:33.685Z,95.07
2023-05-14T08:44:09.219Z,94.96
2023-05-14T08:45:40.886Z,94.81
2023-05-14T08:47:14.026Z,95.21
2023-05-14T08:48:47.196Z,95.48
2023-05-14T08:50:22.767Z,95.01
2023-05-14T08:51:57.291Z,94.04
2023-05-14T08:53:28.985Z,94.31
2023-05-14T08:55:01.062Z,94.33
2023-05-14T08:56:32.778Z,93.33
2023-05-14T08:58:04.478Z,93.08
2023-05-14T08:59:36.123Z,93.03
2023-05-14T09:01:07.745Z,93.60
2023-05-14T09:02:41.251Z,94.51
2023-05-14T09:04:15.564Z,94.66
2023-05-14T09:05:48.450Z,94.64
2023-05-14T09:07:20.081Z,94.23
2023-05-14T09:08:51.781Z,93.43
2023-05-14T09:10:23.677Z,93.86
2023-05-14T09:11:55.681Z,93.57
2023-05-14T09:13:28.410Z,93.77
2023-05-14T09:15:00.129Z,94.38
2023-05-14T09:16:31.798Z,92.22
2023-05-14T09:18:06.566Z,94.09
2023-05-14T09:19:40.197Z,93.07
2023-05-14T09:21:13.469Z,92.19
2023-05-14T09:22:45.429Z,91.48
2023-05-14T09:24:20.857Z,92.32
2023-05-14T09:25:52.739Z,92.28
2023-05-14T09:27:25.934Z,92.00
2023-05-14T09:28:57.806Z,92.51
2023-05-14T09:30:50.067Z,92.24
2023-05-14T09:32:21.756Z,92.15
2023-05-14T09:33:54.903Z,92.06
2023-05-14T09:35:26.658Z,91.22
2023-05-14T09:36:59.008Z,91.28
2023-05-14T09:38:31.012Z,89.47
2023-05-14T09:40:06.425Z,90.73
2023-05-14T09:41:38.317Z,89.82
2023-05-14T09:43:09.983Z,91.45
2023-05-14T09:44:41.660Z,89.66
2023-05-14T09:46:13.433Z,88.87
2023-05-14T09:47:45.525Z,88.89
2023-05-14T09:49:19.233Z,89.67
2023-05-14T09:50:52.111Z,88.87
2023-05-14T09:52:23.912Z,88.88
2023-05-14T09:53:56.221Z,88.74
2023-05-14T09:55:28.037Z,88.39
2023-05-14T09:56:59.783Z,89.00
2023-05-14T09:58:31.444Z,89.79
2023-05-14T10:00:03.943Z,88.09
2023-05-14T10:01:35.877Z,85.92
2023-05-14T10:03:08.127Z,86.70
2023-05-14T10:04:41.294Z,86.65
2023-05-14T10:06:13.397Z,86.18
2023-05-14T10:07:47.866Z,86.10
2023-05-14T10:09:19.662Z,86.47
2023-05-14T10:10:51.915Z,86.31
2023-05-14T10:12:23.625Z,86.20
2023-05-14T10:13:57.583Z,85.45
2023-05-14T10:15:33.108Z,85.72
2023-05-14T10:17:05.099Z,86.07
2023-05-14T10:18:40.251Z,86.28
2023-05-14T10:20:13.638Z,85.66
2023-05-14T10:21:45.971Z,84.75
2023-05-14T10:23:17.923Z,82.20
2023-05-14T10:24:52.599Z,84.11
2023-05-14T10:26:24.376Z,83.36
2023-05-14T10:27:56.139Z,84.02
2023-05-14T10:29:32.555Z,82.55
2023-05-14T10:31:04.250Z,83.09
2023-05-14T10:32:38.059Z,82.06
2023-05-14T10:34:18.826Z,82.63
2023-05-14T10:36:00.564Z,82.92
2023-05-14T10:37:32.314Z,84.45
2023-05-14T10:39:06.833Z,81.57
2023-05-14T10:40:39.409Z,81.88
2023-05-14T10:42:11.232Z,82.36
2023-05-14T10:43:43.324Z,84.57
2023-05-14T10:45:15.284Z,82.77
2023-05-14T10:46:47.018Z,83.28
2023-05-14T10:48:19.830Z,83.58
2023-05-14T10:49:54.761Z,83.53
2023-05-14T10:51:28.012Z,83.75
2023-05-14T10:52:59.799Z,83.85
2023-05-14T10:54:31.598Z,84.02
2023-05-14T10:56:06.174Z,83.87
2023-05-14T10:57:38.946Z,82.63
2023-05-14T10:59:11.652Z,84.25
2023-05-14T11:00:43.404Z,83.55
2023-05-14T11:02:19.480Z,83.14
2023-05-14T11:03:51.105Z,83.15
2023-05-14T11:05:22.879Z,83.00
2023-05-14T11:06:56.304Z,83.52
2023-05-14T11:08:29.369Z,82.94
2023-05-14T11:10:04.688Z,82.11
2023-05-14T11:11:36.777Z,84.13
2023-05-14T11:13:08.496Z,82.78
2023-05-14T11:14:40.243Z,83.02
2023-05-14T11:16:22.575Z,83.59
2023-05-14T11:17:55.523Z,82.71
2023-05-14T11:19:27.412Z,80.78
2023-05-14T11:20:59.505Z,80.70
2023-05-14T11:22:40.254Z,79.25
2023-05-14T11:24:12.000Z,80.79
2023-05-14T11:25:43.924Z,78.02
2023-05-14T11:27:16.066Z,79.25
2023-05-14T11:28:47.728Z,79.65
2023-05-14T11:30:21.734Z,79.01
2023-05-14T11:31:53.582Z,79.69
2023-05-14T11:33:25.495Z,79.23
2023-05-14T11:34:57.955Z,78.20
2023-05-14T11:36:29.631Z,79.39
2023-05-14T11:38:03.071Z,78.89
2023-05-14T11:39:36.060Z,79.23
2023-05-14T11:41:07.718Z,79.14
2023-05-14T11:42:39.477Z,79.07
2023-05-14T11:44:11.113Z,78.63
2023-05-14T11:45:43.310Z,79.91
2023-05-14T11:47:15.152Z,78.76
2023-05-14T11:48:47.247Z,77.76
2023-05-14T11:50:19.297Z,78.01
2023-05-14T11:51:51.332Z,78.75
2023-05-14T11:53:28.070Z,78.26
2023-05-14T11:55:10.591Z,78.04
2023-05-14T11:56:43.111Z,78.81
2023-05-14T11:58:25.840Z,79.36
2023-05-14T12:00:00.573Z,78.81
2023-05-14T12:01:45.761Z,78.95
2023-05-14T12:03:39.162Z,79.62
2023-05-14T12:08:11.891Z,78.48
2023-05-14T12:10:43.605Z,79.55
2023-05-14T12:12:27.347Z,78.03
2023-05-14T12:16:09.011Z,78.55
2023-05-14T12:17:46.879Z,77.72
2023-05-14T12:21:26.919Z,78.25
2023-05-14T12:23:20.126Z,76.97
2023-05-14T12:25:05.516Z,76.51
2023-05-14T12:26:53.257Z,74.49
2023-05-14T12:28:31.585Z,73.35
2023-05-14T12:31:51.368Z,73.13
2023-05-14T12:33:24.231Z,71.86
2023-05-14T12:35:18.792Z,72.34
2023-05-14T12:36:50.437Z,71.03
2023-05-14T12:38:22.075Z,72.56
2023-05-14T12:39:54.299Z,73.08
2023-05-14T12:41:25.877Z,72.60
2023-05-14T12:42:58.841Z,71.75
2023-05-14T12:44:30.600Z,72.96
2023-05-14T12:46:02.204Z,71.51
2023-05-14T12:47:33.941Z,72.18
2023-05-14T12:49:06.921Z,71.99
2023-05-14T12:50:38.529Z,70.80
2023-05-14T12:52:22.760Z,71.38
2023-05-14T12:54:01.692Z,71.00
2023-05-14T12:55:34.283Z,71.74
2023-05-14T12:57:06.268Z,72.45
2023-05-14T12:58:39.245Z,73.31
2023-05-14T13:00:14.497Z,73.59
2023-05-14T13:01:46.164Z,74.76
2023-05-14T13:03:21.147Z,73.41
2023-05-14T13:04:52.996Z,76.00
2023-05-14T13:06:24.600Z,73.67
2023-05-14T13:07:58.708Z,75.11
2023-05-14T13:09:30.340Z,75.39
2023-05-14T13:11:01.963Z,75.12
2023-05-14T13:12:33.547Z,74.62
2023-05-14T13:14:06.564Z,74.26
2023-05-14T13:15:38.519Z,75.92
2023-05-14T13:17:10.152Z,75.93
2023-05-14T13:18:41.747Z,75.33
2023-05-14T13:20:13.435Z,77.12
2023-05-14T13:21:45.093Z,76.16
2023-05-14T13:23:16.690Z,76.41
2023-05-14T13:24:48.373Z,77.02
2023-05-14T13:26:20.062Z,76.26
2023-05-14T13:27:51.699Z,76.92
2023-05-14T13:29:24.700Z,74.34
2023-05-14T13:31:06.993Z,76.26
2023-05-14T13:32:39.637Z,75.99
2023-05-14T13:34:13.182Z,76.65
2023-05-14T13:35:44.925Z,75.47
2023-05-14T13:37:16.622Z,75.63
2023-05-14T13:38:48.461Z,75.49
2023-05-14T13:40:20.196Z,71.94
2023-05-14T13:41:51.856Z,72.12
2023-05-14T13:43:23.582Z,71.70
2023-05-14T13:44:57.468Z,72.52
2023-05-14T13:46:29.179Z,72.37
2023-05-14T13:48:00.864Z,71.54
2023-05-14T13:49:32.648Z,71.78
2023-05-14T13:51:04.400Z,72.41
2023-05-14T13:52:36.558Z,71.11
2023-05-14T13:54:08.203Z,72.41
2023-05-14T13:55:39.920Z,72.10
2023-05-14T13:57:14.188Z,72.38
2023-05-14T13:58:45.804Z,71.48
2023-05-14T14:00:19.263Z,73.28
2023-05-14T14:01:51.667Z,69.65
2023-05-14T14:03:23.522Z,72.14
2023-05-14T14:04:55.101Z,72.92
2023-05-14T14:06:27.416Z,69.00
2023-05-14T14:08:04.565Z,71.61
2023-05-14T14:09:45.136Z,70.61
2023-05-14T14:11:17.634Z,69.11
2023-05-14T14:12:49.361Z,70.87
2023-05-14T14:14:20.963Z,70.21
2023-05-14T14:15:53.952Z,72.44
2023-05-14T14:17:25.666Z,70.28
2023-05-14T14:18:57.485Z,68.96
2023-05-14T14:20:29.344Z,71.25
2023-05-14T14:22:01.031Z,67.79
2023-05-14T14:23:32.701Z,71.82
2023-05-14T14:25:04.921Z,70.21
2023-05-14T14:26:36.711Z,69.82
2023-05-14T14:28:08.432Z,71.77
2023-05-14T14:29:40.055Z,70.70
2023-05-14T14:31:13.167Z,72.21
2023-05-14T14:32:45.133Z,69.45
2023-05-14T14:34:16.765Z,69.66
2023-05-14T14:35:48.434Z,68.69
2023-05-14T14:37:21.265Z,69.82
2023-05-14T14:38:54.680Z,65.77
2023-05-14T14:40:26.400Z,63.07
2023-05-14T14:41:57.989Z,66.61
2023-05-14T14:43:29.649Z,65.38
2023-05-14T14:45:01.240Z,65.23
2023-05-14T14:46:34.458Z,65.72
2023-05-14T14:48:25.817Z,64.98
2023-05-14T14:49:57.501Z,65.99
2023-05-14T14:51:30.192Z,66.33
2023-05-14T14:53:01.869Z,64.93
2023-05-14T14:54:33.453Z,66.36
2023-05-14T14:56:07.150Z,67.03
2023-05-14T14:57:38.802Z,67.35
2023-05-14T14:59:10.462Z,64.38
2023-05-14T15:00:42.105Z,63.95
2023-05-14T15:02:15.180Z,63.46
2023-05-14T15:03:48.395Z,65.84
2023-05-14T15:05:20.108Z,64.45
2023-05-14T15:06:51.677Z,63.31
2023-05-14T15:08:25.316Z,63.78
2023-05-14T15:09:56.921Z,62.07
2023-05-14T15:11:29.071Z,61.80
2023-05-14T15:13:00.701Z,62.00
2023-05-14T15:14:32.329Z,62.10
2023-05-14T15:16:04.047Z,62.19
2023-05-14T15:17:37.033Z,65.27
2023-05-14T15:19:08.715Z,65.51
2023-05-14T15:20:40.533Z,64.04
2023-05-14T15:22:12.169Z,63.58
2023-05-14T15:23:43.756Z,66.87
2023-05-14T15:25:15.458Z,65.95
2023-05-14T15:26:47.275Z,66.58
2023-05-14T15:28:18.851Z,66.77
2023-05-14T15:29:50.458Z,66.67
2023-05-14T15:31:22.107Z,63.13
2023-05-14T15:32:55.156Z,65.20
2023-05-14T15:34:26.737Z,66.08
2023-05-14T15:35:58.497Z,66.92
2023-05-14T15:37:31.871Z,67.53
2023-05-14T15:39:03.849Z,68.71
2023-05-14T15:40:35.556Z,70.28
2023-05-14T15:42:07.332Z,70.63
2023-05-14T15:43:38.942Z,71.25
2023-05-14T15:45:11.809Z,71.79
2023-05-14T15:46:43.564Z,71.98
2023-05-14T15:48:16.631Z,72.97
2023-05-14T15:49:48.262Z,73.25
2023-05-14T15:51:19.851Z,74.11
2023-05-14T15:52:51.447Z,74.02
2023-05-14T15:54:23.087Z,74.75
2023-05-14T15:55:54.723Z,74.27
2023-05-14T15:57:26.383Z,76.88
2023-05-14T15:58:58.025Z,78.66
2023-05-14T16:00:29.875Z,81.52
2023-05-14T16:02:01.721Z,80.49
2023-05-14T16:03:34.783Z,83.74
2023-05-14T16:07:28.841Z,83.11
2023-05-14T16:09:01.531Z,84.16
2023-05-14T16:10:33.170Z,84.24
2023-05-14T16:12:06.007Z,86.35
2023-05-14T16:13:39.145Z,86.86
2023-05-14T16:15:11.457Z,86.89
2023-05-14T16:16:43.210Z,86.20
2023-05-14T16:18:15.057Z,85.88
2023-05-14T16:19:48.353Z,86.02
2023-05-14T16:21:20.059Z,87.23
2023-05-14T16:22:51.688Z,86.59
2023-05-14T16:24:23.340Z,85.87
2023-05-14T16:25:55.015Z,85.83
2023-05-14T16:27:27.131Z,86.38
2023-05-14T16:28:58.910Z,86.66
2023-05-14T16:30:30.626Z,86.76
2023-05-14T16:32:02.634Z,85.77
2023-05-14T16:33:34.507Z,86.31
2023-05-14T16:35:08.550Z,85.65
2023-05-14T16:36:40.322Z,85.69
2023-05-14T16:38:12.026Z,84.85
2023-05-14T16:39:46.672Z,85.07
2023-05-14T16:41:18.363Z,84.77
2023-05-14T16:42:50.034Z,83.91
2023-05-14T16:44:22.143Z,84.32
2023-05-14T16:45:54.307Z,84.96
2023-05-14T16:47:26.078Z,85.97
2023-05-14T16:48:57.866Z,85.80
2023-05-14T16:50:31.296Z,86.92
2023-05-14T16:52:03.148Z,86.23
2023-05-14T16:53:37.523Z,87.28
2023-05-14T16:55:11.478Z,87.55
2023-05-14T16:56:48.040Z,87.40
2023-05-14T16:58:20.025Z,87.84
2023-05-14T16:59:51.783Z,87.81
2023-05-14T17:01:23.452Z,87.21
2023-05-14T17:02:55.439Z,86.45
2023-05-14T17:04:29.023Z,86.11
2023-05-14T17:06:02.706Z,85.50
2023-05-14T17:07:34.376Z,87.92
2023-05-14T17:09:06.967Z,88.68
2023-05-14T17:10:38.740Z,89.26
2023-05-14T17:12:11.315Z,88.44
2023-05-14T17:13:46.233Z,89.56
2023-05-14T17:15:18.136Z,90.95
2023-05-14T17:16:50.275Z,91.75
2023-05-14T17:18:21.932Z,91.72
2023-05-14T17:19:53.812Z,92.08
2023-05-14T17:21:26.878Z,91.96
2023-05-14T17:22:58.547Z,91.95
2023-05-14T17:24:30.298Z,92.43
2023-05-14T17:26:03.225Z,91.56
2023-05-14T17:27:36.157Z,93.00
2023-05-14T17:29:08.168Z,92.54
2023-05-14T17:30:40.288Z,92.74
2023-05-14T17:32:12.042Z,93.12
2023-05-14T17:33:46.736Z,93.35
2023-05-14T17:35:18.382Z,93.91
2023-05-14T17:36:51.403Z,94.25
2023-05-14T17:38:23.044Z,94.80
2023-05-14T17:39:54.843Z,93.20
2023-05-14T17:41:26.705Z,94.35
2023-05-14T17:42:58.417Z,93.83
2023-05-14T17:44:30.173Z,93.72
2023-05-14T17:46:01.831Z,93.09
2023-05-14T17:47:33.494Z,92.35
2023-05-14T17:49:05.214Z,93.33
2023-05-14T17:50:36.954Z,93.43
2023-05-14T17:52:10.588Z,93.78
2023-05-14T17:53:42.187Z,92.79
2023-05-14T17:55:13.961Z,94.35
2023-05-14T17:56:46.083Z,94.13
2023-05-14T17:58:17.897Z,93.24
2023-05-14T17:59:49.636Z,93.42
2023-05-14T18:01:21.341Z,93.83
2023-05-14T18:02:53.035Z,94.28
2023-05-14T18:04:24.901Z,93.48
2023-05-14T18:05:56.666Z,93.68
2023-05-14T18:07:29.870Z,93.25
2023-05-14T18:09:01.496Z,93.51
2023-05-14T18:10:33.196Z,93.77
2023-05-14T18:12:05.518Z,93.51
2023-05-14T18:13:37.256Z,94.30
2023-05-14T18:15:09.542Z,95.12
2023-05-14T18:16:41.288Z,94.28
2023-05-14T18:18:13.555Z,95.70
2023-05-14T18:19:45.524Z,94.94
2023-05-14T18:21:17.195Z,95.09
2023-05-14T18:22:51.064Z,95.25
2023-05-14T18:24:54.892Z,95.48
2023-05-14T18:26:24.561Z,94.98
2023-05-14T18:27:56.258Z,94.88
2023-05-14T18:29:27.928Z,94.74
2023-05-14T18:30:59.558Z,94.82
2023-05-14T18:32:31.281Z,95.46
2023-05-14T18:34:03.151Z,95.24
2023-05-14T18:35:35.275Z,95.80
2023-05-14T18:37:07.302Z,95.50
2023-05-14T18:38:40.997Z,95.58
2023-05-14T18:40:16.361Z,94.69
2023-05-14T18:41:50.046Z,95.24
2023-05-14T18:43:21.706Z,94.95
2023-05-14T18:44:53.403Z,94.96
2023-05-14T18:46:25.122Z,95.07
2023-05-14T18:47:57.004Z,95.61
2023-05-14T18:49:28.814Z,95.73
2023-05-14T18:51:01.128Z,95.54
2023-05-14T18:52:33.529Z,95.46
2023-05-14T18:54:06.620Z,95.54
2023-05-14T18:55:38.310Z,95.69
2023-05-14T18:57:10.256Z,96.07
2023-05-14T18:58:41.953Z,95.98
2023-05-14T19:00:14.762Z,95.75
2023-05-14T19:01:46.521Z,95.16
2023-05-14T19:03:19.873Z,94.37
2023-05-14T19:04:52.788Z,94.52
2023-05-14T19:06:24.915Z,95.78
2023-05-14T19:07:56.719Z,96.13
2023-05-14T19:09:31.730Z,96.09
2023-05-14T19:11:03.370Z,96.21
2023-05-14T19:12:35.049Z,96.09
2023-05-14T19:14:06.802Z,96.00
2023-05-14T19:15:38.572Z,95.88
2023-05-14T19:17:10.380Z,95.89
2023-05-14T19:18:42.296Z,96.90
2023-05-14T19:20:14.030Z,96.88
2023-05-14T19:21:45.736Z,96.95
2023-05-14T19:23:17.386Z,97.09
2023-05-14T19:26:22.268Z,97.05
2023-05-14T19:27:55.326Z,97.12
2023-05-14T19:29:26.946Z,96.49
2023-05-14T19:30:58.758Z,95.37
2023-05-14T19:32:30.431Z,95.54
2023-05-14T19:34:05.063Z,95.12
2023-05-14T19:35:36.811Z,94.21
2023-05-14T19:37:08.523Z,93.54
2023-05-14T19:38:40.426Z,93.33
2023-05-14T19:40:16.644Z,94.78
2023-05-14T19:41:48.312Z,96.03
2023-05-14T19:43:20.983Z,95.48
2023-05-14T19:44:52.760Z,95.87
2023-05-14T19:46:24.509Z,96.40
2023-05-14T19:47:56.620Z,97.03
2023-05-14T19:49:28.395Z,96.29
2023-05-14T19:51:00.119Z,94.20
2023-05-14T19:52:31.972Z,94.54
2023-05-14T19:54:03.717Z,94.86
2023-05-14T19:55:36.798Z,94.29
2023-05-14T19:57:09.239Z,94.28
2023-05-14T19:58:40.906Z,94.40
2023-05-14T20:00:13.577Z,94.90
2023-05-14T20:01:46.062Z,93.97
2023-05-14T20:03:17.772Z,93.55
2023-05-14T20:04:49.487Z,94.21
2023-05-14T20:06:22.764Z,93.95
2023-05-14T20:07:54.619Z,94.07